createdAt,value
2018-03-25T00:00:04.026Z,3.80
2018-03-25T00:02:32.434Z,3.81
2018-03-25T00:05:00.890Z,3.75
2018-03-25T00:07:29.297Z,3.74
2018-03-25T00:09:57.706Z,3.61
2018-03-25T00:12:26.173Z,3.56
2018-03-25T00:14:54.577Z,3.46
2018-03-25T00:17:22.981Z,3.40
2018-03-25T00:19:51.565Z,3.44
2018-03-25T00:22:19.973Z,3.42
2018-03-25T00:24:48.382Z,3.39
2018-03-25T00:27:16.857Z,3.51
2018-03-25T00:29:45.269Z,3.38
2018-03-25T00:32:13.673Z,3.48
2018-03-25T00:34:42.312Z,3.51
2018-03-25T00:37:10.722Z,3.37
2018-03-25T00:39:39.134Z,3.33
2018-03-25T00:42:07.615Z,3.44
2018-03-25T00:44:36.021Z,3.47
2018-03-25T00:47:04.431Z,3.43
2018-03-25T00:49:32.886Z,3.35
2018-03-25T00:52:01.299Z,3.29
2018-03-25T00:54:29.707Z,3.28
2018-03-25T00:56:58.195Z,3.27
2018-03-25T00:59:26.604Z,3.22
2018-03-25T01:01:55.034Z,3.12
2018-03-25T01:04:23.507Z,2.93
2018-03-25T01:06:51.909Z,2.87
2018-03-25T01:09:20.313Z,2.88
2018-03-25T01:11:48.769Z,2.91
2018-03-25T01:14:17.178Z,2.79
2018-03-25T01:16:45.591Z,2.76
2018-03-25T01:19:14.053Z,2.68
2018-03-25T01:21:42.474Z,2.60
2018-03-25T01:24:10.890Z,2.55
2018-03-25T01:26:39.346Z,2.50
2018-03-25T01:29:07.758Z,2.54
2018-03-25T01:31:36.174Z,2.53
2018-03-25T01:34:04.641Z,2.56
2018-03-25T01:36:33.052Z,2.54
2018-03-25T01:39:01.462Z,2.50
2018-03-25T01:41:29.905Z,2.57
2018-03-25T01:43:58.316Z,2.51
2018-03-25T01:46:26.725Z,2.48
2018-03-25T01:48:55.174Z,2.50
2018-03-25T01:51:23.581Z,2.55
2018-03-25T01:53:51.990Z,2.56
2018-03-25T01:56:20.605Z,2.54
2018-03-25T01:58:49.009Z,2.47
2018-03-25T02:01:17.414Z,2.41
2018-03-25T02:03:45.878Z,2.37
2018-03-25T02:06:14.279Z,2.28
2018-03-25T02:08:42.682Z,2.22
2018-03-25T02:11:11.126Z,2.13
2018-03-25T02:13:39.537Z,2.07
2018-03-25T02:16:07.942Z,2.00
2018-03-25T02:18:36.394Z,2.11
2018-03-25T02:21:04.821Z,2.14
2018-03-25T02:23:33.230Z,2.15
2018-03-25T02:26:01.997Z,1.99
2018-03-25T02:28:30.414Z,1.93
2018-03-25T02:30:58.827Z,2.04
2018-03-25T02:33:27.284Z,1.95
2018-03-25T02:35:55.694Z,1.92
2018-03-25T02:38:24.099Z,1.84
2018-03-25T02:40:52.555Z,1.86
2018-03-25T02:43:20.973Z,1.77
2018-03-25T02:45:49.398Z,1.87
2018-03-25T02:48:17.881Z,1.81
2018-03-25T02:50:46.288Z,1.70
2018-03-25T02:53:14.689Z,1.77
2018-03-25T02:55:43.214Z,1.80
2018-03-25T02:58:11.645Z,1.79
2018-03-25T03:00:40.054Z,1.69
2018-03-25T03:03:08.526Z,1.72
2018-03-25T03:05:36.934Z,1.66
2018-03-25T03:08:05.341Z,1.66
2018-03-25T03:10:33.805Z,1.67
2018-03-25T03:13:02.229Z,1.61
2018-03-25T03:15:30.646Z,1.63
2018-03-25T03:17:59.110Z,1.65
2018-03-25T03:20:27.517Z,1.58
2018-03-25T03:22:55.928Z,1.45
2018-03-25T03:25:24.414Z,1.37
2018-03-25T03:27:52.821Z,1.40
2018-03-25T03:30:21.222Z,1.31
2018-03-25T03:32:49.693Z,1.39
2018-03-25T03:35:18.104Z,1.40
2018-03-25T03:37:46.512Z,1.36
2018-03-25T03:40:14.975Z,1.36
2018-03-25T03:42:43.394Z,1.27
2018-03-25T03:45:11.796Z,1.26
2018-03-25T03:47:40.263Z,1.24
2018-03-25T03:50:08.690Z,1.28
2018-03-25T03:52:37.097Z,1.33
2018-03-25T03:55:05.573Z,1.30
2018-03-25T03:57:34.018Z,1.34
2018-03-25T04:00:02.466Z,1.24
2018-03-25T04:02:30.950Z,1.32
2018-03-25T04:04:59.406Z,1.30
2018-03-25T04:07:27.809Z,1.34
2018-03-25T04:09:56.561Z,1.21
2018-03-25T04:12:24.968Z,1.26
2018-03-25T04:14:53.369Z,1.18
2018-03-25T04:17:21.834Z,1.17
2018-03-25T04:19:50.245Z,1.22
2018-03-25T04:22:18.665Z,1.23
2018-03-25T04:24:47.122Z,1.24
2018-03-25T04:27:15.537Z,1.26
2018-03-25T04:29:43.945Z,1.28
2018-03-25T04:32:12.399Z,1.29
2018-03-25T04:34:40.814Z,1.30
2018-03-25T04:37:09.225Z,1.36
2018-03-25T04:39:37.679Z,1.42
2018-03-25T04:42:06.106Z,1.44
2018-03-25T04:44:34.510Z,1.47
2018-03-25T04:47:02.965Z,1.50
2018-03-25T04:49:31.387Z,1.55
2018-03-25T04:51:59.794Z,1.55
2018-03-25T04:54:28.310Z,1.47
2018-03-25T04:56:56.718Z,1.49
2018-03-25T04:59:25.151Z,1.59
2018-03-25T05:01:53.618Z,1.61
2018-03-25T05:04:22.021Z,1.62
2018-03-25T05:06:50.430Z,1.64
2018-03-25T05:09:18.876Z,1.66
2018-03-25T05:11:47.303Z,1.64
2018-03-25T05:14:15.707Z,1.60
2018-03-25T05:16:44.418Z,1.61
2018-03-25T05:19:12.834Z,1.56
2018-03-25T05:21:41.240Z,1.53
2018-03-25T05:24:09.689Z,1.46
2018-03-25T05:26:38.094Z,1.46
2018-03-25T05:29:06.501Z,1.43
2018-03-25T05:31:34.981Z,1.51
2018-03-25T05:34:03.432Z,1.50
2018-03-25T05:36:31.826Z,1.55
2018-03-25T05:39:00.293Z,1.61
2018-03-25T05:41:28.699Z,1.62
2018-03-25T05:43:57.110Z,1.63
2018-03-25T05:46:25.582Z,1.64
2018-03-25T05:48:53.999Z,1.67
2018-03-25T05:51:22.455Z,1.71
2018-03-25T05:53:50.906Z,1.73
2018-03-25T05:56:19.313Z,1.69
2018-03-25T05:58:47.730Z,1.70
2018-03-25T06:01:16.189Z,1.70
2018-03-25T06:03:44.606Z,1.86
2018-03-25T06:06:13.017Z,1.88
2018-03-25T06:08:41.477Z,1.91
2018-03-25T06:11:09.881Z,1.85
2018-03-25T06:13:38.290Z,1.89
2018-03-25T06:16:06.746Z,1.95
2018-03-25T06:18:35.229Z,1.96
2018-03-25T06:21:03.658Z,2.04
2018-03-25T06:23:32.286Z,2.11
2018-03-25T06:26:00.697Z,2.10
2018-03-25T06:28:29.126Z,2.18
2018-03-25T06:30:57.593Z,2.22
2018-03-25T06:33:25.997Z,2.27
2018-03-25T06:35:54.406Z,2.32
2018-03-25T06:38:22.856Z,2.37
2018-03-25T06:40:51.264Z,2.42
2018-03-25T06:43:19.669Z,2.42
2018-03-25T06:45:48.130Z,2.49
2018-03-25T06:48:16.536Z,2.47
2018-03-25T06:50:44.946Z,2.56
2018-03-25T06:53:13.414Z,2.51
2018-03-25T06:55:41.818Z,2.51
2018-03-25T06:58:10.227Z,2.53
2018-03-25T07:00:38.681Z,2.62
2018-03-25T07:03:07.098Z,2.71
2018-03-25T07:05:35.538Z,2.71
2018-03-25T07:08:04.006Z,2.74
2018-03-25T07:10:32.422Z,2.81
2018-03-25T07:13:00.827Z,2.92
2018-03-25T07:15:29.294Z,3.03
2018-03-25T07:17:57.704Z,3.08
2018-03-25T07:20:26.113Z,3.21
2018-03-25T07:22:54.569Z,3.25
2018-03-25T07:25:22.973Z,3.31
2018-03-25T07:27:51.465Z,3.35
2018-03-25T07:30:19.919Z,3.43
2018-03-25T07:32:48.325Z,3.56
2018-03-25T07:35:16.729Z,3.64
2018-03-25T07:37:45.211Z,3.72
2018-03-25T07:40:13.621Z,3.75
2018-03-25T07:42:42.025Z,3.76
2018-03-25T07:45:10.498Z,3.91
2018-03-25T07:47:38.922Z,4.00
2018-03-25T07:50:07.343Z,4.15
2018-03-25T07:52:35.825Z,4.23
2018-03-25T07:55:04.259Z,4.24
2018-03-25T07:57:32.670Z,4.31
2018-03-25T08:00:01.141Z,4.35
2018-03-25T08:02:29.550Z,4.28
2018-03-25T08:04:57.961Z,4.37
2018-03-25T08:07:26.427Z,4.41
2018-03-25T08:09:54.854Z,4.46
2018-03-25T08:12:23.262Z,4.45
2018-03-25T08:14:51.714Z,4.33
2018-03-25T08:17:20.122Z,4.41
2018-03-25T08:19:48.526Z,4.54
2018-03-25T08:22:16.997Z,4.74
2018-03-25T08:24:45.402Z,4.84
2018-03-25T08:27:13.810Z,4.85
2018-03-25T08:29:42.262Z,5.03
2018-03-25T08:32:10.666Z,5.10
2018-03-25T08:34:39.094Z,-146.80
2018-03-25T08:37:07.573Z,5.29
2018-03-25T08:39:36.010Z,-146.80
2018-03-25T08:42:04.490Z,-146.80
2018-03-25T08:44:32.990Z,-146.80
2018-03-25T08:47:01.435Z,-146.80
2018-03-25T08:49:29.874Z,-146.80
2018-03-25T08:51:58.370Z,-146.80
2018-03-25T08:54:26.803Z,-146.80
2018-03-25T08:56:55.242Z,-146.80
2018-03-25T08:59:23.762Z,-146.80
2018-03-25T09:01:52.181Z,6.23
2018-03-25T09:04:20.609Z,-146.80
2018-03-25T09:06:49.093Z,6.40
2018-03-25T09:09:17.523Z,-146.80
2018-03-25T09:11:45.962Z,-146.80
2018-03-25T09:14:14.465Z,-146.80
2018-03-25T09:16:42.914Z,-146.80
2018-03-25T09:19:11.350Z,-146.80
2018-03-25T09:21:39.829Z,-146.80
2018-03-25T09:24:08.247Z,7.13
2018-03-25T09:26:36.677Z,-146.80
2018-03-25T09:29:05.177Z,-146.80
2018-03-25T09:31:33.619Z,-146.80
2018-03-25T09:34:02.059Z,-146.80
2018-03-25T09:36:30.545Z,-146.80
2018-03-25T09:38:58.977Z,-146.80
2018-03-25T09:41:27.414Z,-146.80
2018-03-25T09:43:55.919Z,-146.80
2018-03-25T09:46:24.364Z,-146.80
2018-03-25T09:48:52.806Z,-146.80
2018-03-25T09:51:21.289Z,-146.80
2018-03-25T09:53:49.734Z,-146.80
2018-03-25T09:56:18.169Z,-146.80
2018-03-25T09:58:46.703Z,-146.80
2018-03-25T10:01:15.167Z,-146.80
2018-03-25T10:03:43.608Z,-146.80
2018-03-25T10:06:12.090Z,-146.80
2018-03-25T10:08:40.562Z,-146.80
2018-03-25T10:11:08.997Z,-146.80
2018-03-25T10:13:37.503Z,-146.80
2018-03-25T10:16:05.965Z,-146.80
2018-03-25T10:18:34.402Z,-146.80
2018-03-25T10:21:03.424Z,-146.80
2018-03-25T10:23:31.861Z,-146.80
2018-03-25T10:26:00.288Z,11.14
2018-03-25T10:28:28.763Z,-146.80
2018-03-25T10:30:57.205Z,-146.80
2018-03-25T10:33:25.637Z,-146.80
2018-03-25T10:35:54.138Z,-146.80
2018-03-25T10:38:22.566Z,11.35
2018-03-25T10:40:51.039Z,-146.80
2018-03-25T10:43:19.498Z,11.51
2018-03-25T10:45:47.929Z,11.68
2018-03-25T10:48:16.346Z,11.65
2018-03-25T10:50:44.794Z,11.72
2018-03-25T10:53:13.203Z,11.69
2018-03-25T10:55:41.625Z,11.66
2018-03-25T10:58:10.095Z,11.66
2018-03-25T11:00:38.510Z,11.71
2018-03-25T11:03:06.922Z,11.70
2018-03-25T11:05:35.393Z,11.68
2018-03-25T11:08:03.838Z,11.86
2018-03-25T11:10:32.254Z,11.88
2018-03-25T11:13:00.710Z,11.91
2018-03-25T11:15:29.119Z,11.96
2018-03-25T11:17:57.529Z,11.79
2018-03-25T11:20:25.983Z,11.81
2018-03-25T11:22:54.418Z,11.66
2018-03-25T11:25:22.837Z,11.65
2018-03-25T11:27:51.313Z,11.53
2018-03-25T11:30:19.724Z,11.77
2018-03-25T11:32:48.132Z,11.97
2018-03-25T11:35:16.594Z,12.18
2018-03-25T11:37:45.006Z,12.08
2018-03-25T11:40:13.471Z,12.09
2018-03-25T11:42:42.308Z,12.18
2018-03-25T11:45:10.730Z,12.38
2018-03-25T11:47:39.140Z,12.25
2018-03-25T11:50:07.630Z,12.24
2018-03-25T11:52:36.046Z,12.15
2018-03-25T11:55:04.490Z,12.35
2018-03-25T11:57:32.979Z,12.39
2018-03-25T12:00:01.390Z,12.30
2018-03-25T12:02:29.808Z,12.31
2018-03-25T12:04:58.266Z,12.50
2018-03-25T12:07:26.677Z,12.56
2018-03-25T12:09:55.087Z,12.81
2018-03-25T12:12:23.549Z,13.17
2018-03-25T12:14:51.989Z,13.44
2018-03-25T12:17:20.431Z,13.45
2018-03-25T12:19:48.906Z,13.24
2018-03-25T12:22:17.326Z,13.27
2018-03-25T12:24:45.738Z,13.24
2018-03-25T12:27:14.234Z,13.38
2018-03-25T12:29:42.656Z,13.37
2018-03-25T12:32:11.066Z,13.44
2018-03-25T12:34:39.557Z,13.27
2018-03-25T12:37:07.974Z,13.14
2018-03-25T12:39:36.388Z,13.12
2018-03-25T12:42:05.230Z,12.94
2018-03-25T12:44:33.650Z,12.86
2018-03-25T12:47:02.066Z,12.71
2018-03-25T12:49:30.521Z,12.78
2018-03-25T12:51:58.937Z,12.86
2018-03-25T12:54:27.350Z,12.85
2018-03-25T12:56:55.813Z,12.92
2018-03-25T12:59:24.226Z,12.51
2018-03-25T13:01:52.641Z,12.27
2018-03-25T13:04:21.106Z,12.41
2018-03-25T13:06:49.523Z,12.54
2018-03-25T13:09:17.937Z,12.49
2018-03-25T13:11:46.422Z,12.68
2018-03-25T13:14:14.839Z,12.81
2018-03-25T13:16:43.258Z,12.73
2018-03-25T13:19:11.718Z,12.63
2018-03-25T13:21:40.173Z,12.61
2018-03-25T13:24:08.586Z,12.59
2018-03-25T13:26:37.041Z,12.68
2018-03-25T13:29:05.493Z,12.69
2018-03-25T13:31:33.901Z,12.48
2018-03-25T13:34:02.399Z,12.25
2018-03-25T13:36:30.865Z,12.33
2018-03-25T13:38:59.282Z,12.50
2018-03-25T13:41:27.737Z,12.53
2018-03-25T13:43:56.149Z,12.58
2018-03-25T13:46:24.570Z,12.55
2018-03-25T13:48:53.062Z,12.50
2018-03-25T13:51:21.474Z,12.49
2018-03-25T13:53:49.918Z,12.52
2018-03-25T13:56:18.394Z,12.51
2018-03-25T13:58:46.809Z,12.41
2018-03-25T14:01:15.230Z,12.37
2018-03-25T14:03:43.685Z,12.30
2018-03-25T14:06:12.115Z,12.30
2018-03-25T14:08:40.526Z,12.18
2018-03-25T14:11:08.997Z,12.14
2018-03-25T14:13:37.410Z,12.15
2018-03-25T14:16:05.837Z,12.11
2018-03-25T14:18:34.294Z,12.08
2018-03-25T14:21:02.713Z,12.14
2018-03-25T14:23:31.130Z,12.03
2018-03-25T14:25:59.594Z,12.01
2018-03-25T14:28:28.010Z,11.99
2018-03-25T14:30:56.422Z,11.99
2018-03-25T14:33:24.906Z,11.87
2018-03-25T14:35:53.321Z,11.83
2018-03-25T14:38:21.738Z,11.77
2018-03-25T14:40:50.216Z,11.75
2018-03-25T14:43:18.630Z,11.80
2018-03-25T14:45:47.046Z,11.78
2018-03-25T14:48:15.502Z,11.77
2018-03-25T14:50:43.918Z,11.70
2018-03-25T14:53:12.329Z,11.74
2018-03-25T14:55:40.799Z,11.66
2018-03-25T14:58:09.214Z,11.66
2018-03-25T15:00:37.630Z,11.57
2018-03-25T15:03:06.106Z,11.59
2018-03-25T15:05:34.526Z,11.60
2018-03-25T15:08:03.015Z,11.58
2018-03-25T15:10:31.474Z,11.55
2018-03-25T15:12:59.886Z,11.20
2018-03-25T15:15:28.333Z,11.32
2018-03-25T15:17:57.504Z,11.38
2018-03-25T15:20:25.921Z,11.43
2018-03-25T15:22:54.343Z,11.45
2018-03-25T15:25:22.802Z,11.42
2018-03-25T15:27:51.217Z,11.30
2018-03-25T15:30:19.631Z,11.24
2018-03-25T15:32:48.101Z,11.22
2018-03-25T15:35:16.515Z,11.22
2018-03-25T15:37:44.963Z,11.19
2018-03-25T15:40:13.429Z,11.14
2018-03-25T15:42:41.854Z,11.07
2018-03-25T15:45:10.262Z,11.01
2018-03-25T15:47:38.734Z,10.95
2018-03-25T15:50:07.151Z,10.95
2018-03-25T15:52:35.565Z,10.94
2018-03-25T15:55:04.049Z,10.91
2018-03-25T15:57:32.465Z,10.97
2018-03-25T16:00:00.883Z,10.88
2018-03-25T16:02:29.369Z,10.86
2018-03-25T16:04:57.785Z,10.79
2018-03-25T16:07:26.204Z,10.79
2018-03-25T16:09:54.657Z,10.76
2018-03-25T16:12:23.074Z,10.76
2018-03-25T16:14:51.495Z,10.71
2018-03-25T16:17:19.971Z,10.68
2018-03-25T16:19:48.386Z,10.68
2018-03-25T16:22:16.805Z,10.70
2018-03-25T16:24:45.262Z,10.62
2018-03-25T16:27:13.674Z,10.62
2018-03-25T16:29:42.082Z,10.56
2018-03-25T16:32:10.541Z,10.56
2018-03-25T16:34:38.958Z,10.53
2018-03-25T16:37:07.382Z,10.50
2018-03-25T16:39:35.850Z,10.46
2018-03-25T16:42:04.290Z,10.48
2018-03-25T16:44:32.706Z,10.35
2018-03-25T16:47:01.157Z,10.36
2018-03-25T16:49:29.574Z,10.34
2018-03-25T16:51:57.986Z,10.36
2018-03-25T16:54:26.441Z,10.35
2018-03-25T16:56:54.866Z,10.30
2018-03-25T16:59:23.279Z,10.21
2018-03-25T17:01:51.754Z,10.20
2018-03-25T17:04:20.169Z,10.14
2018-03-25T17:06:48.586Z,10.13
2018-03-25T17:09:17.038Z,10.07
2018-03-25T17:11:45.449Z,10.04
2018-03-25T17:14:13.858Z,9.98
2018-03-25T17:16:42.330Z,9.91
2018-03-25T17:19:10.746Z,9.87
2018-03-25T17:21:39.158Z,9.87
2018-03-25T17:24:07.774Z,9.81
2018-03-25T17:26:36.229Z,9.79
2018-03-25T17:29:04.650Z,9.67
2018-03-25T17:31:33.098Z,9.68
2018-03-25T17:34:01.536Z,9.63
2018-03-25T17:36:29.971Z,9.58
2018-03-25T17:38:58.434Z,9.61
2018-03-25T17:41:26.846Z,9.57
2018-03-25T17:43:55.249Z,9.54
2018-03-25T17:46:23.718Z,9.51
2018-03-25T17:48:52.122Z,9.41
2018-03-25T17:51:20.528Z,9.39
2018-03-25T17:53:48.986Z,9.36
2018-03-25T17:56:17.402Z,9.39
2018-03-25T17:58:45.814Z,9.40
2018-03-25T18:01:14.270Z,9.37
2018-03-25T18:03:42.677Z,9.36
2018-03-25T18:06:11.085Z,9.36
2018-03-25T18:08:39.537Z,9.32
2018-03-25T18:11:07.946Z,9.32
2018-03-25T18:13:36.358Z,9.30
2018-03-25T18:16:04.860Z,9.33
2018-03-25T18:18:33.262Z,9.30
2018-03-25T18:21:01.670Z,9.27
2018-03-25T18:23:30.137Z,9.33
2018-03-25T18:25:58.625Z,9.26
2018-03-25T18:28:26.993Z,9.22
2018-03-25T18:30:55.533Z,9.22
2018-03-25T18:33:23.918Z,9.24
2018-03-25T18:35:52.400Z,9.19
2018-03-25T18:38:20.855Z,9.12
2018-03-25T18:40:49.262Z,9.06
2018-03-25T18:43:17.673Z,9.05
2018-03-25T18:45:46.133Z,9.05
2018-03-25T18:48:14.566Z,9.02
2018-03-25T18:50:42.982Z,8.98
2018-03-25T18:53:11.447Z,8.94
2018-03-25T18:55:39.863Z,8.94
2018-03-25T18:58:08.271Z,8.87
2018-03-25T19:00:36.722Z,8.83
2018-03-25T19:03:06.059Z,8.81
2018-03-25T19:05:34.466Z,8.79
2018-03-25T19:08:02.938Z,8.78
2018-03-25T19:10:31.350Z,8.77
2018-03-25T19:12:59.829Z,8.77
2018-03-25T19:15:28.278Z,8.75
2018-03-25T19:17:56.685Z,8.69
2018-03-25T19:20:25.098Z,8.62
2018-03-25T19:22:53.567Z,8.58
2018-03-25T19:25:21.974Z,8.56
2018-03-25T19:27:50.403Z,8.53
2018-03-25T19:30:18.867Z,8.53
2018-03-25T19:32:47.274Z,8.52
2018-03-25T19:35:15.825Z,8.50
2018-03-25T19:37:44.293Z,8.47
2018-03-25T19:40:12.709Z,8.48
2018-03-25T19:42:41.125Z,8.54
2018-03-25T19:45:09.727Z,8.53
2018-03-25T19:47:38.133Z,8.54
2018-03-25T19:50:06.578Z,8.55
2018-03-25T19:52:35.029Z,8.45
2018-03-25T19:55:03.568Z,8.45
2018-03-25T19:57:31.974Z,8.51
2018-03-25T20:00:00.428Z,8.48
2018-03-25T20:02:28.838Z,8.46
2018-03-25T20:04:57.250Z,8.43
2018-03-25T20:07:25.705Z,8.45
2018-03-25T20:09:54.112Z,8.46
2018-03-25T20:12:22.518Z,8.38
2018-03-25T20:14:50.987Z,8.34
2018-03-25T20:17:19.411Z,8.33
2018-03-25T20:19:47.821Z,8.38
2018-03-25T20:22:16.343Z,8.36
2018-03-25T20:24:44.730Z,8.35
2018-03-25T20:27:13.137Z,8.34
2018-03-25T20:29:41.585Z,8.30
2018-03-25T20:32:09.990Z,8.33
2018-03-25T20:34:38.402Z,8.32
2018-03-25T20:37:06.892Z,8.31
2018-03-25T20:39:35.298Z,8.35
2018-03-25T20:42:03.733Z,8.31
2018-03-25T20:44:32.198Z,8.27
2018-03-25T20:47:00.606Z,8.27
2018-03-25T20:49:29.010Z,8.20
2018-03-25T20:51:57.595Z,8.15
2018-03-25T20:54:26.005Z,8.22
2018-03-25T20:56:54.415Z,8.23
2018-03-25T20:59:22.878Z,8.25
2018-03-25T21:01:51.289Z,8.22
2018-03-25T21:04:19.702Z,8.15
2018-03-25T21:06:48.149Z,8.23
2018-03-25T21:09:16.558Z,8.20
2018-03-25T21:11:44.961Z,8.31
2018-03-25T21:14:13.421Z,8.35
2018-03-25T21:16:41.829Z,8.36
2018-03-25T21:19:10.239Z,8.40
2018-03-25T21:21:38.706Z,8.32
2018-03-25T21:24:07.258Z,8.33
2018-03-25T21:26:35.670Z,8.36
2018-03-25T21:29:03.553Z,8.33
2018-03-25T21:31:31.957Z,8.29
2018-03-25T21:34:00.364Z,8.30
2018-03-25T21:36:28.835Z,8.28
2018-03-25T21:38:57.242Z,8.27
2018-03-25T21:41:25.667Z,8.29
2018-03-25T21:43:54.134Z,8.25
2018-03-25T21:46:22.540Z,8.20
2018-03-25T21:48:50.942Z,8.23
2018-03-25T21:51:19.393Z,8.22
2018-03-25T21:53:47.798Z,8.10
2018-03-25T21:56:16.214Z,8.00
2018-03-25T21:58:44.677Z,7.94
2018-03-25T22:01:13.089Z,7.81
2018-03-25T22:03:41.501Z,7.86
2018-03-25T22:06:09.961Z,7.89
2018-03-25T22:08:38.370Z,7.94
2018-03-25T22:11:06.779Z,7.96
2018-03-25T22:13:35.233Z,7.92
2018-03-25T22:16:03.681Z,7.90
2018-03-25T22:18:32.128Z,7.90
2018-03-25T22:21:00.593Z,7.95
2018-03-25T22:23:28.993Z,7.94
2018-03-25T22:25:57.402Z,7.87
2018-03-25T22:28:25.850Z,7.85
2018-03-25T22:30:54.252Z,7.75
2018-03-25T22:33:22.659Z,7.69
2018-03-25T22:35:51.116Z,7.55
2018-03-25T22:38:19.536Z,7.53
2018-03-25T22:40:47.942Z,7.55
2018-03-25T22:43:16.406Z,7.56
2018-03-25T22:45:44.809Z,7.57
2018-03-25T22:48:13.217Z,7.58
2018-03-25T22:50:41.666Z,7.58
2018-03-25T22:53:10.065Z,7.57
2018-03-25T22:55:38.470Z,7.61
2018-03-25T22:58:06.938Z,7.67
2018-03-25T23:00:35.362Z,7.62
2018-03-25T23:03:09.533Z,7.61
2018-03-25T23:05:37.937Z,7.59
2018-03-25T23:08:06.354Z,7.55
2018-03-25T23:10:34.829Z,7.52
2018-03-25T23:13:03.253Z,7.54
2018-03-25T23:15:31.669Z,7.54
2018-03-25T23:18:00.134Z,7.55
2018-03-25T23:20:28.545Z,7.53
2018-03-25T23:22:56.958Z,7.41
2018-03-25T23:25:25.406Z,7.46
2018-03-25T23:27:53.814Z,7.38
2018-03-25T23:30:22.213Z,7.42
2018-03-25T23:32:50.674Z,7.39
2018-03-25T23:35:19.085Z,7.34
2018-03-25T23:37:47.489Z,7.24
2018-03-25T23:40:15.938Z,7.15
2018-03-25T23:42:44.345Z,7.13
2018-03-25T23:45:12.762Z,7.00
2018-03-25T23:47:41.229Z,6.87
2018-03-25T23:50:09.634Z,6.85
2018-03-25T23:52:38.037Z,6.79
2018-03-25T23:55:06.509Z,6.79
2018-03-25T23:57:34.919Z,6.72
